createdAt,value
2022-08-16T00:02:47.800Z,99325.56
2022-08-16T00:05:57.654Z,99329.47
2022-08-16T00:09:00.290Z,99330.34
2022-08-16T00:12:02.399Z,99333.03
2022-08-16T00:15:12.048Z,99331.84
2022-08-16T00:18:29.862Z,99331.69
2022-08-16T00:21:38.581Z,99328.84
2022-08-16T00:24:46.657Z,99335.00
2022-08-16T00:27:55.571Z,99332.78
2022-08-16T00:30:59.286Z,99337.94
2022-08-16T00:34:04.501Z,99335.59
2022-08-16T00:37:06.584Z,99335.88
2022-08-16T00:40:33.696Z,99327.50
2022-08-16T00:43:42.630Z,99327.53
2022-08-16T00:47:02.257Z,99326.50
2022-08-16T00:50:14.111Z,99329.41
2022-08-16T00:53:19.141Z,99340.53
2022-08-16T00:56:57.679Z,99347.06
2022-08-16T00:59:58.847Z,99344.63
2022-08-16T01:03:11.814Z,99342.81
2022-08-16T01:06:39.859Z,99344.06
2022-08-16T01:09:42.984Z,99349.19
2022-08-16T01:12:47.597Z,99344.28
2022-08-16T01:16:22.815Z,99344.69
2022-08-16T01:19:33.193Z,99343.06
2022-08-16T01:22:49.875Z,99345.53
2022-08-16T01:25:59.899Z,99351.47
2022-08-16T01:29:22.481Z,99343.44
2022-08-16T01:32:44.714Z,99345.31
2022-08-16T01:36:12.371Z,99355.56
2022-08-16T01:39:18.585Z,99355.56
2022-08-16T01:42:24.697Z,99364.16
2022-08-16T01:45:40.822Z,99352.69
2022-08-16T01:48:46.378Z,99350.25
2022-08-16T01:51:53.331Z,99354.53
2022-08-16T01:55:05.283Z,99343.72
2022-08-16T01:58:12.795Z,99343.94
2022-08-16T02:01:28.606Z,99344.75
2022-08-16T02:04:49.303Z,99349.84
2022-08-16T02:07:56.755Z,99345.75
2022-08-16T02:10:59.497Z,99342.69
2022-08-16T02:14:18.310Z,99345.94
2022-08-16T02:17:31.163Z,99341.28
2022-08-16T02:20:36.390Z,99340.88
2022-08-16T02:23:42.273Z,99335.75
2022-08-16T02:26:46.358Z,99337.16
2022-08-16T02:30:05.022Z,99350.88
2022-08-16T02:33:16.471Z,99340.44
2022-08-16T02:36:47.873Z,99344.13
2022-08-16T02:39:42.398Z,99344.97
2022-08-16T02:42:45.161Z,99336.22
2022-08-16T02:45:57.312Z,99347.03
2022-08-16T02:49:01.759Z,99340.69
2022-08-16T02:52:05.265Z,99342.75
2022-08-16T02:55:12.128Z,99343.16
2022-08-16T02:58:19.355Z,99339.47
2022-08-16T03:01:37.014Z,99341.72
2022-08-16T03:04:52.418Z,99347.22
2022-08-16T03:07:57.415Z,99351.53
2022-08-16T03:11:04.539Z,99347.03
2022-08-16T03:14:07.521Z,99345.00
2022-08-16T03:17:10.602Z,99348.88
2022-08-16T03:20:15.689Z,99360.44
2022-08-16T03:23:22.207Z,99365.53
2022-08-16T03:26:26.045Z,99359.44
2022-08-16T03:29:30.300Z,99359.00
2022-08-16T03:32:32.604Z,99372.09
2022-08-16T03:35:40.049Z,99364.94
2022-08-16T03:38:43.821Z,99368.19
2022-08-16T03:41:50.172Z,99370.81
2022-08-16T03:45:03.491Z,99380.84
2022-08-16T03:48:07.848Z,99389.81
2022-08-16T03:51:14.394Z,99398.00
2022-08-16T03:54:16.808Z,99396.97
2022-08-16T03:57:20.449Z,99398.81
2022-08-16T04:00:35.909Z,99392.88
2022-08-16T04:03:43.112Z,99392.88
2022-08-16T04:06:46.773Z,99395.56
2022-08-16T04:09:49.660Z,99405.84
2022-08-16T04:12:55.069Z,99404.41
2022-08-16T04:16:03.926Z,99405.66
2022-08-16T04:19:09.898Z,99408.50
2022-08-16T04:22:13.701Z,99406.28
2022-08-16T04:25:20.069Z,99414.03
2022-08-16T04:28:29.688Z,99407.72
2022-08-16T04:31:56.785Z,99412.59
2022-08-16T04:35:08.515Z,99414.84
2022-08-16T04:38:21.404Z,99407.50
2022-08-16T04:41:32.924Z,99409.53
2022-08-16T04:44:53.816Z,99400.16
2022-08-16T04:48:00.178Z,99399.31
2022-08-16T04:51:11.533Z,99407.69
2022-08-16T04:54:19.488Z,99399.28
2022-08-16T04:57:22.168Z,99409.69
2022-08-16T05:00:34.649Z,99403.09
2022-08-16T05:03:42.038Z,99408.59
2022-08-16T05:07:00.606Z,99412.44
2022-08-16T05:10:05.639Z,99415.53
2022-08-16T05:13:23.331Z,99420.03
2022-08-16T05:16:48.479Z,99418.69
2022-08-16T05:19:58.359Z,99413.22
2022-08-16T05:23:03.586Z,99440.38
2022-08-16T05:26:19.537Z,99450.94
2022-08-16T05:29:22.669Z,99444.84
2022-08-16T05:32:32.596Z,99441.50
2022-08-16T05:35:38.510Z,99437.66
2022-08-16T05:38:40.813Z,99437.94
2022-08-16T05:41:45.201Z,99429.53
2022-08-16T05:44:48.013Z,99427.22
2022-08-16T05:48:00.422Z,99432.28
2022-08-16T05:51:03.980Z,99434.47
2022-08-16T05:54:11.377Z,99425.31
2022-08-16T05:57:20.668Z,99424.81
2022-08-16T06:00:23.378Z,99420.88
2022-08-16T06:03:26.049Z,99418.62
2022-08-16T06:06:31.529Z,99432.41
2022-08-16T06:09:42.713Z,99435.44
2022-08-16T06:12:46.144Z,99432.44
2022-08-16T06:15:55.756Z,99430.59
2022-08-16T06:18:58.053Z,99437.53
2022-08-16T06:22:06.845Z,99437.69
2022-08-16T06:25:12.524Z,99435.81
2022-08-16T06:28:35.011Z,99427.75
2022-08-16T06:31:46.721Z,99440.84
2022-08-16T06:34:57.205Z,99436.34
2022-08-16T06:38:00.421Z,99437.19
2022-08-16T06:41:13.560Z,99436.19
2022-08-16T06:44:21.059Z,99431.94
2022-08-16T06:47:24.828Z,99438.88
2022-08-16T06:50:56.513Z,99442.38
2022-08-16T06:54:01.857Z,99441.84
2022-08-16T06:57:16.538Z,99434.56
2022-08-16T07:00:24.177Z,99438.69
2022-08-16T07:03:32.769Z,99437.69
2022-08-16T07:06:52.395Z,99441.78
2022-08-16T07:09:59.829Z,99446.38
2022-08-16T07:13:03.608Z,99452.19
2022-08-16T07:16:15.438Z,99448.50
2022-08-16T07:19:19.036Z,99451.53
2022-08-16T07:22:38.110Z,99457.91
2022-08-16T07:25:43.180Z,99457.38
2022-08-16T07:28:47.359Z,99450.47
2022-08-16T07:31:49.601Z,99457.47
2022-08-16T07:34:54.833Z,99451.66
2022-08-16T07:37:58.986Z,99462.84
2022-08-16T07:41:02.089Z,99467.63
2022-08-16T07:44:15.455Z,99477.66
2022-08-16T07:47:24.342Z,99477.00
2022-08-16T07:50:56.151Z,99479.25
2022-08-16T07:54:02.449Z,99489.25
2022-08-16T07:57:12.451Z,99476.47
2022-08-16T08:00:18.276Z,99475.09
2022-08-16T08:03:21.761Z,99471.44
2022-08-16T08:06:28.268Z,99473.69
2022-08-16T08:09:30.817Z,99469.72
2022-08-16T08:12:36.195Z,99470.53
2022-08-16T08:15:39.804Z,99476.81
2022-08-16T08:19:01.242Z,99479.12
2022-08-16T08:22:05.895Z,99487.06
2022-08-16T08:25:09.626Z,99473.50
2022-08-16T08:28:18.774Z,99480.88
2022-08-16T08:31:24.718Z,99486.00
2022-08-16T08:34:27.947Z,99485.72
2022-08-16T08:37:54.740Z,99485.13
2022-08-16T08:40:55.599Z,99480.44
2022-08-16T08:43:58.418Z,99485.94
2022-08-16T08:47:03.904Z,99493.31
2022-08-16T08:50:10.711Z,99494.31
2022-08-16T08:53:13.592Z,99493.09
2022-08-16T08:56:23.626Z,99495.22
2022-08-16T08:59:28.254Z,99493.97
2022-08-16T09:02:31.137Z,99484.75
2022-08-16T09:05:35.949Z,99485.53
2022-08-16T09:08:40.190Z,99484.03
2022-08-16T09:12:04.123Z,99488.34
2022-08-16T09:15:13.447Z,99487.28
2022-08-16T09:18:24.987Z,99485.00
2022-08-16T09:21:31.487Z,99472.66
2022-08-16T09:24:52.507Z,99477.81
2022-08-16T09:27:58.070Z,99471.62
2022-08-16T09:31:05.867Z,99464.06
2022-08-16T09:34:08.932Z,99460.56
2022-08-16T09:37:17.603Z,99467.31
2022-08-16T09:40:33.292Z,99461.63
2022-08-16T09:44:00.102Z,99460.81
2022-08-16T09:47:10.476Z,99452.19
2022-08-16T09:50:13.439Z,99451.81
2022-08-16T09:53:27.252Z,99458.13
2022-08-16T09:56:31.570Z,99465.56
2022-08-16T09:59:38.429Z,99461.28
2022-08-16T10:02:44.228Z,99454.25
2022-08-16T10:05:50.705Z,99452.59
2022-08-16T10:09:04.989Z,99447.66
2022-08-16T10:12:28.267Z,99447.25
2022-08-16T10:15:31.211Z,99446.69
2022-08-16T10:19:00.748Z,99447.56
2022-08-16T10:21:58.283Z,99447.34
2022-08-16T10:25:00.468Z,99445.09
2022-08-16T10:28:28.131Z,99445.25
2022-08-16T10:31:45.388Z,99444.94
2022-08-16T10:34:46.728Z,99439.13
2022-08-16T10:37:54.066Z,99442.06
2022-08-16T10:40:56.162Z,99445.91
2022-08-16T10:43:59.263Z,99453.41
2022-08-16T10:47:02.366Z,99447.41
2022-08-16T10:50:06.348Z,99433.34
2022-08-16T10:53:21.699Z,99444.97
2022-08-16T10:56:52.169Z,99432.31
2022-08-16T10:59:54.438Z,99436.19
2022-08-16T11:03:43.129Z,99432.31
2022-08-16T11:06:29.784Z,99424.53
2022-08-16T11:09:31.917Z,99426.94
2022-08-16T11:12:46.433Z,99423.22
2022-08-16T11:15:55.447Z,99425.22
2022-08-16T11:19:06.266Z,99426.00
2022-08-16T11:22:38.771Z,99422.56
2022-08-16T11:29:15.421Z,99434.94
2022-08-16T11:32:20.265Z,99438.94
2022-08-16T11:38:56.987Z,99463.78
2022-08-16T11:42:02.572Z,99476.69
2022-08-16T11:45:20.672Z,99474.06
2022-08-16T11:48:25.354Z,99472.84
2022-08-16T11:51:30.085Z,99464.28
2022-08-16T11:54:36.707Z,99466.16
2022-08-16T11:57:41.621Z,99464.94
2022-08-16T12:00:52.795Z,99463.81
2022-08-16T12:03:58.560Z,99469.38
2022-08-16T12:07:03.108Z,99456.78
2022-08-16T12:10:08.309Z,99449.72
2022-08-16T12:13:10.849Z,99441.38
2022-08-16T12:16:17.578Z,99438.16
2022-08-16T12:19:35.423Z,99439.88
2022-08-16T12:22:38.715Z,99449.38
2022-08-16T12:25:42.207Z,99442.25
2022-08-16T12:28:54.422Z,99443.00
2022-08-16T12:32:00.949Z,99455.47
2022-08-16T12:35:22.417Z,99452.69
2022-08-16T12:38:41.463Z,99446.78
2022-08-16T12:41:47.352Z,99446.19
2022-08-16T12:44:51.166Z,99440.12
2022-08-16T12:51:59.458Z,99446.78
2022-08-16T12:55:00.113Z,99451.59
2022-08-16T12:58:02.806Z,99442.94
2022-08-16T13:01:17.513Z,99441.28
2022-08-16T13:04:24.695Z,99430.41
2022-08-16T13:07:28.827Z,99440.38
2022-08-16T13:10:41.441Z,99422.37
2022-08-16T13:13:46.349Z,99419.13
2022-08-16T13:16:56.975Z,99417.81
2022-08-16T13:20:08.701Z,99415.91
2022-08-16T13:23:11.981Z,99402.19
2022-08-16T13:26:19.429Z,99406.03
2022-08-16T13:29:23.510Z,99392.59
2022-08-16T13:32:39.558Z,99405.31
2022-08-16T13:35:44.453Z,99399.69
2022-08-16T13:38:47.585Z,99403.53
2022-08-16T13:41:53.632Z,99405.13
2022-08-16T13:44:58.642Z,99406.66
2022-08-16T13:48:02.340Z,99404.59
2022-08-16T13:51:07.584Z,99411.47
2022-08-16T13:54:09.744Z,99399.69
2022-08-16T13:57:12.679Z,99404.84
2022-08-16T14:00:16.241Z,99400.88
2022-08-16T14:03:22.301Z,99394.47
2022-08-16T14:06:26.463Z,99386.59
2022-08-16T14:09:32.009Z,99390.16
2022-08-16T14:12:35.774Z,99390.91
2022-08-16T14:15:38.176Z,99388.12
2022-08-16T14:19:10.320Z,99380.94
2022-08-16T14:22:42.596Z,99381.59
2022-08-16T14:25:45.360Z,99375.59
2022-08-16T14:29:01.229Z,99376.34
2022-08-16T14:32:06.957Z,99364.44
2022-08-16T14:35:11.594Z,99366.06
2022-08-16T14:38:18.319Z,99375.81
2022-08-16T14:41:21.287Z,99374.38
2022-08-16T14:44:28.195Z,99385.06
2022-08-16T14:47:34.272Z,99381.44
2022-08-16T14:50:37.463Z,99383.09
2022-08-16T14:53:45.499Z,99394.19
2022-08-16T14:56:54.920Z,99420.19
2022-08-16T15:00:00.774Z,99419.28
2022-08-16T15:03:11.148Z,99429.47
2022-08-16T15:06:14.606Z,99432.66
2022-08-16T15:09:21.265Z,99424.44
2022-08-16T15:12:31.311Z,99431.53
2022-08-16T15:15:37.924Z,99432.53
2022-08-16T15:18:40.494Z,99437.09
2022-08-16T15:21:43.092Z,99441.72
2022-08-16T15:24:45.688Z,99429.59
2022-08-16T15:27:54.596Z,99440.53
2022-08-16T15:31:00.951Z,99441.97
2022-08-16T15:34:08.806Z,99444.22
2022-08-16T15:37:22.947Z,99441.66
2022-08-16T15:40:32.284Z,99432.81
2022-08-16T15:43:40.069Z,99428.81
2022-08-16T15:46:55.470Z,99424.00
2022-08-16T15:50:04.504Z,99422.94
2022-08-16T15:53:17.291Z,99425.78
2022-08-16T15:56:20.287Z,99436.41
2022-08-16T15:59:27.165Z,99415.06
2022-08-16T16:02:32.094Z,99415.13
2022-08-16T16:05:39.105Z,99426.59
2022-08-16T16:12:16.323Z,99418.75
2022-08-16T16:15:29.550Z,99421.00
2022-08-16T16:18:34.654Z,99422.37
2022-08-16T16:21:48.981Z,99426.03
2022-08-16T16:24:56.453Z,99423.09
2022-08-16T16:28:00.688Z,99426.44
2022-08-16T16:31:05.419Z,99424.44
2022-08-16T16:34:07.567Z,99428.03
2022-08-16T16:37:14.828Z,99426.97
2022-08-16T16:40:23.947Z,99431.97
2022-08-16T16:43:36.142Z,99434.75
2022-08-16T16:46:43.423Z,99422.78
2022-08-16T16:49:46.784Z,99427.66
2022-08-16T16:52:54.862Z,99432.22
2022-08-16T16:55:58.119Z,99428.87
2022-08-16T16:59:09.773Z,99434.53
2022-08-16T17:02:41.862Z,99437.63
2022-08-16T17:05:35.183Z,99445.25
2022-08-16T17:08:41.524Z,99441.16
2022-08-16T17:11:45.981Z,99451.84
2022-08-16T17:15:00.273Z,99483.66
2022-08-16T17:18:04.289Z,99472.16
2022-08-16T17:21:25.178Z,99469.97
2022-08-16T17:24:39.300Z,99457.84
2022-08-16T17:27:42.564Z,99469.47
2022-08-16T17:30:53.660Z,99489.13
2022-08-16T17:33:56.718Z,99503.03
2022-08-16T17:37:08.057Z,99508.56
2022-08-16T17:40:40.268Z,99506.37
2022-08-16T17:43:44.487Z,99505.31
2022-08-16T17:46:52.097Z,99505.97
2022-08-16T17:49:58.434Z,99509.31
2022-08-16T17:53:03.406Z,99515.56
2022-08-16T17:56:06.717Z,99511.06
2022-08-16T17:59:10.301Z,99520.28
2022-08-16T18:02:43.038Z,99523.66
2022-08-16T18:05:38.388Z,99538.81
2022-08-16T18:08:41.496Z,99541.63
2022-08-16T18:11:46.355Z,99548.63
2022-08-16T18:14:51.385Z,99538.03
2022-08-16T18:17:55.262Z,99545.38
2022-08-16T18:21:18.958Z,99555.25
2022-08-16T18:24:21.273Z,99542.34
2022-08-16T18:27:26.046Z,99550.94
2022-08-16T18:30:29.394Z,99549.69
2022-08-16T18:33:31.509Z,99543.63
2022-08-16T18:36:34.839Z,99542.47
2022-08-16T18:39:42.822Z,99547.69
2022-08-16T18:42:57.134Z,99541.16
2022-08-16T18:45:59.277Z,99547.88
2022-08-16T18:49:04.351Z,99539.88
2022-08-16T18:52:07.108Z,99541.94
2022-08-16T18:55:14.655Z,99542.50
2022-08-16T18:58:17.982Z,99548.53
2022-08-16T19:01:20.537Z,99547.81
2022-08-16T19:04:47.759Z,99552.31
2022-08-16T19:07:53.869Z,99545.06
2022-08-16T19:10:56.332Z,99546.66
2022-08-16T19:13:58.668Z,99549.41
2022-08-16T19:17:00.878Z,99548.09
2022-08-16T19:20:10.547Z,99550.50
2022-08-16T19:23:15.400Z,99549.16
2022-08-16T19:26:24.403Z,99550.16
2022-08-16T19:29:28.217Z,99552.50
2022-08-16T19:32:30.441Z,99560.84
2022-08-16T19:35:33.984Z,99554.09
2022-08-16T19:38:38.253Z,99560.81
2022-08-16T19:41:45.856Z,99557.50
2022-08-16T19:44:52.480Z,99554.94
2022-08-16T19:48:03.899Z,99560.16
2022-08-16T19:51:06.508Z,99555.88
2022-08-16T19:54:08.697Z,99552.97
2022-08-16T19:57:10.901Z,99557.59
2022-08-16T20:00:18.091Z,99556.44
2022-08-16T20:03:21.914Z,99560.38
2022-08-16T20:06:32.343Z,99559.31
2022-08-16T20:09:41.126Z,99562.41
2022-08-16T20:12:43.317Z,99554.25
2022-08-16T20:16:08.656Z,99567.00
2022-08-16T20:19:10.689Z,99568.44
2022-08-16T20:22:49.614Z,99563.97
2022-08-16T20:25:47.491Z,99572.59
2022-08-16T20:28:54.882Z,99567.28
2022-08-16T20:31:59.400Z,99565.25
2022-08-16T20:35:02.440Z,99569.47
2022-08-16T20:38:05.136Z,99574.25
2022-08-16T20:41:09.691Z,99573.94
2022-08-16T20:44:13.224Z,99574.16
2022-08-16T20:47:16.356Z,99564.97
2022-08-16T20:50:22.942Z,99567.25
2022-08-16T20:53:27.676Z,99571.41
2022-08-16T20:56:30.656Z,99572.84
2022-08-16T20:59:33.826Z,99568.97
2022-08-16T21:02:38.911Z,99575.50
2022-08-16T21:05:46.768Z,99572.69
2022-08-16T21:08:52.322Z,99579.63
2022-08-16T21:11:57.791Z,99582.94
2022-08-16T21:15:05.473Z,99581.28
2022-08-16T21:18:08.063Z,99587.84
2022-08-16T21:21:12.060Z,99586.38
2022-08-16T21:24:21.354Z,99589.66
2022-08-16T21:27:24.322Z,99593.75
2022-08-16T21:30:32.775Z,99595.41
2022-08-16T21:33:35.366Z,99603.19
2022-08-16T21:36:44.157Z,99602.34
2022-08-16T21:39:51.989Z,99603.19
2022-08-16T21:42:57.405Z,99601.34
2022-08-16T21:46:06.758Z,99602.97
2022-08-16T21:49:09.176Z,99602.78
2022-08-16T21:52:21.122Z,99610.53
2022-08-16T21:55:32.608Z,99611.56
2022-08-16T21:58:35.170Z,99611.97
2022-08-16T22:01:39.379Z,99609.12
2022-08-16T22:04:41.992Z,99614.44
2022-08-16T22:07:45.291Z,99612.41
2022-08-16T22:11:06.960Z,99612.78
2022-08-16T22:14:11.351Z,99603.19
2022-08-16T22:17:15.004Z,99609.94
2022-08-16T22:20:20.804Z,99610.13
2022-08-16T22:23:26.561Z,99609.72
2022-08-16T22:26:33.343Z,99616.25
2022-08-16T22:29:36.024Z,99617.88
2022-08-16T22:32:53.226Z,99615.03
2022-08-16T22:35:57.914Z,99615.78
2022-08-16T22:39:01.441Z,99616.59
2022-08-16T22:42:08.867Z,99617.41
2022-08-16T22:45:12.767Z,99616.72
2022-08-16T22:48:17.500Z,99613.66
2022-08-16T22:51:20.820Z,99614.69
2022-08-16T22:54:42.546Z,99620.78
2022-08-16T22:57:46.671Z,99614.03
2022-08-16T23:00:49.411Z,99616.91
2022-08-16T23:03:56.130Z,99611.19
2022-08-16T23:07:00.245Z,99613.84
2022-08-16T23:10:02.723Z,99616.28
2022-08-16T23:13:06.344Z,99612.19
2022-08-16T23:16:11.873Z,99610.34
2022-08-16T23:19:15.609Z,99612.78
2022-08-16T23:22:24.570Z,99612.19
2022-08-16T23:25:29.763Z,99608.88
2022-08-16T23:28:32.932Z,99607.88
2022-08-16T23:31:35.374Z,99612.13
2022-08-16T23:34:37.864Z,99607.84
2022-08-16T23:37:41.047Z,99607.81
2022-08-16T23:40:43.325Z,99612.31
2022-08-16T23:43:45.797Z,99611.50
2022-08-16T23:46:49.575Z,99609.00
2022-08-16T23:50:00.633Z,99615.91
2022-08-16T23:53:10.509Z,99606.75
2022-08-16T23:56:16.572Z,99613.56
2022-08-16T23:59:20.064Z,99614.75
